sensor_id;sensor_type;location;lat;lon;timestamp;pressure;altitude;pressure_sealevel;temperature;humidity
7109;BME280;29079;41.930;25.558;2022-10-17T00:00:20;101018.78;;;7.63;60.74
7109;BME280;29079;41.930;25.558;2022-10-17T00:02:50;101019.50;;;7.49;61.43
7109;BME280;29079;41.930;25.558;2022-10-17T00:05:19;101027.38;;;7.50;61.49
7109;BME280;29079;41.930;25.558;2022-10-17T00:07:49;101017.84;;;7.64;60.96
7109;BME280;29079;41.930;25.558;2022-10-17T00:10:20;101032.00;;;7.47;61.75
7109;BME280;29079;41.930;25.558;2022-10-17T00:12:50;101032.84;;;7.47;61.42
7109;BME280;29079;41.930;25.558;2022-10-17T00:15:22;101034.75;;;7.45;61.78
7109;BME280;29079;41.930;25.558;2022-10-17T00:17:52;101031.78;;;7.34;62.31
7109;BME280;29079;41.930;25.558;2022-10-17T00:20:22;101026.63;;;7.48;61.52
7109;BME280;29079;41.930;25.558;2022-10-17T00:22:51;101028.13;;;7.37;62.16
7109;BME280;29079;41.930;25.558;2022-10-17T00:25:21;101030.38;;;7.44;62.29
7109;BME280;29079;41.930;25.558;2022-10-17T00:27:51;101028.63;;;7.43;61.13
7109;BME280;29079;41.930;25.558;2022-10-17T00:30:22;101033.34;;;7.38;61.97
7109;BME280;29079;41.930;25.558;2022-10-17T00:32:52;101036.84;;;7.21;62.19
7109;BME280;29079;41.930;25.558;2022-10-17T00:35:21;101027.25;;;7.19;62.79
7109;BME280;29079;41.930;25.558;2022-10-17T00:37:51;101031.78;;;7.17;62.47
7109;BME280;29079;41.930;25.558;2022-10-17T00:40:21;101035.19;;;7.36;62.15
7109;BME280;29079;41.930;25.558;2022-10-17T00:42:50;101036.25;;;7.34;62.52
7109;BME280;29079;41.930;25.558;2022-10-17T00:45:21;101039.44;;;7.23;62.95
7109;BME280;29079;41.930;25.558;2022-10-17T00:47:53;101035.75;;;7.25;63.07
7109;BME280;29079;41.930;25.558;2022-10-17T00:50:25;101038.00;;;7.15;63.08
7109;BME280;29079;41.930;25.558;2022-10-17T00:52:55;101042.72;;;7.10;64.03
7109;BME280;29079;41.930;25.558;2022-10-17T00:55:29;101047.38;;;7.05;63.91
7109;BME280;29079;41.930;25.558;2022-10-17T00:57:59;101041.00;;;7.09;63.56
7109;BME280;29079;41.930;25.558;2022-10-17T01:00:31;101039.09;;;7.11;63.82
7109;BME280;29079;41.930;25.558;2022-10-17T01:03:02;101047.66;;;6.82;64.23
7109;BME280;29079;41.930;25.558;2022-10-17T01:05:32;101037.84;;;7.01;63.48
7109;BME280;29079;41.930;25.558;2022-10-17T01:08:02;101042.69;;;6.93;63.33
7109;BME280;29079;41.930;25.558;2022-10-17T01:10:34;101041.56;;;6.79;63.15
7109;BME280;29079;41.930;25.558;2022-10-17T01:13:09;101037.06;;;6.82;63.93
7109;BME280;29079;41.930;25.558;2022-10-17T01:15:47;101028.72;;;6.89;63.15
7109;BME280;29079;41.930;25.558;2022-10-17T01:18:25;101038.59;;;6.68;63.26
7109;BME280;29079;41.930;25.558;2022-10-17T01:26:56;101040.94;;;6.74;64.12
7109;BME280;29079;41.930;25.558;2022-10-17T01:29:31;101037.91;;;6.82;63.43
7109;BME280;29079;41.930;25.558;2022-10-17T01:32:05;101044.91;;;6.66;63.96
7109;BME280;29079;41.930;25.558;2022-10-17T01:34:51;101048.06;;;6.74;63.73
7109;BME280;29079;41.930;25.558;2022-10-17T01:37:28;101054.50;;;6.68;64.10
7109;BME280;29079;41.930;25.558;2022-10-17T01:40:02;101048.19;;;6.52;65.19
7109;BME280;29079;41.930;25.558;2022-10-17T01:42:38;101047.97;;;6.56;64.92
7109;BME280;29079;41.930;25.558;2022-10-17T01:45:11;101040.53;;;6.65;64.91
7109;BME280;29079;41.930;25.558;2022-10-17T01:47:43;101035.63;;;6.74;64.70
7109;BME280;29079;41.930;25.558;2022-10-17T01:50:15;101040.28;;;6.69;64.33
7109;BME280;29079;41.930;25.558;2022-10-17T01:52:47;101050.31;;;6.45;65.21
7109;BME280;29079;41.930;25.558;2022-10-17T01:55:20;101048.28;;;6.50;65.20
7109;BME280;29079;41.930;25.558;2022-10-17T01:57:52;101044.28;;;6.41;65.48
7109;BME280;29079;41.930;25.558;2022-10-17T02:00:23;101048.06;;;6.55;65.33
7109;BME280;29079;41.930;25.558;2022-10-17T02:02:57;101049.94;;;6.53;65.83
7109;BME280;29079;41.930;25.558;2022-10-17T02:05:28;101044.34;;;6.40;65.79
7109;BME280;29079;41.930;25.558;2022-10-17T02:07:59;101042.97;;;6.50;65.45
7109;BME280;29079;41.930;25.558;2022-10-17T02:10:30;101042.84;;;6.34;66.04
7109;BME280;29079;41.930;25.558;2022-10-17T02:13:04;101039.78;;;6.43;66.16
7109;BME280;29079;41.930;25.558;2022-10-17T02:15:46;101041.47;;;6.44;66.07
7109;BME280;29079;41.930;25.558;2022-10-17T02:18:27;101049.28;;;6.28;66.56
7109;BME280;29079;41.930;25.558;2022-10-17T02:21:03;101051.72;;;6.14;66.66
7109;BME280;29079;41.930;25.558;2022-10-17T02:23:36;101053.28;;;5.99;67.41
7109;BME280;29079;41.930;25.558;2022-10-17T02:26:09;101057.97;;;6.13;67.17
7109;BME280;29079;41.930;25.558;2022-10-17T02:28:41;101060.84;;;6.27;66.34
7109;BME280;29079;41.930;25.558;2022-10-17T02:31:13;101055.25;;;6.15;66.51
7109;BME280;29079;41.930;25.558;2022-10-17T02:33:46;101058.97;;;6.10;66.39
7109;BME280;29079;41.930;25.558;2022-10-17T02:36:19;101060.41;;;6.18;66.08
7109;BME280;29079;41.930;25.558;2022-10-17T02:38:50;101068.81;;;6.07;66.51
7109;BME280;29079;41.930;25.558;2022-10-17T02:41:22;101077.88;;;6.22;65.62
7109;BME280;29079;41.930;25.558;2022-10-17T02:43:52;101081.47;;;6.21;66.24
7109;BME280;29079;41.930;25.558;2022-10-17T02:46:28;101084.22;;;5.99;66.58
7109;BME280;29079;41.930;25.558;2022-10-17T02:49:01;101076.16;;;6.21;66.18
7109;BME280;29079;41.930;25.558;2022-10-17T02:51:35;101083.56;;;6.33;65.41
7109;BME280;29079;41.930;25.558;2022-10-17T02:54:10;101079.81;;;6.56;64.80
7109;BME280;29079;41.930;25.558;2022-10-17T02:56:54;101088.94;;;6.51;64.47
7109;BME280;29079;41.930;25.558;2022-10-17T02:59:27;101086.91;;;6.18;65.79
7109;BME280;29079;41.930;25.558;2022-10-17T03:02:00;101091.78;;;6.27;65.91
7109;BME280;29079;41.930;25.558;2022-10-17T03:04:32;101103.50;;;6.02;66.64
7109;BME280;29079;41.930;25.558;2022-10-17T03:07:02;101095.56;;;6.21;65.85
7109;BME280;29079;41.930;25.558;2022-10-17T03:09:32;101094.00;;;6.17;66.78
7109;BME280;29079;41.930;25.558;2022-10-17T03:12:02;101088.78;;;6.35;65.85
7109;BME280;29079;41.930;25.558;2022-10-17T03:14:33;101094.56;;;6.24;66.16
7109;BME280;29079;41.930;25.558;2022-10-17T03:17:02;101108.28;;;6.34;65.80
7109;BME280;29079;41.930;25.558;2022-10-17T03:19:33;101099.88;;;6.24;66.32
7109;BME280;29079;41.930;25.558;2022-10-17T03:22:03;101114.13;;;6.40;65.87
7109;BME280;29079;41.930;25.558;2022-10-17T03:24:32;101112.72;;;6.33;65.71
7109;BME280;29079;41.930;25.558;2022-10-17T03:27:02;101112.72;;;6.33;66.00
7109;BME280;29079;41.930;25.558;2022-10-17T03:29:32;101119.91;;;6.10;66.74
7109;BME280;29079;41.930;25.558;2022-10-17T03:32:02;101122.97;;;6.22;66.75
7109;BME280;29079;41.930;25.558;2022-10-17T03:34:31;101124.56;;;6.05;67.48
7109;BME280;29079;41.930;25.558;2022-10-17T03:37:02;101123.16;;;6.17;67.52
7109;BME280;29079;41.930;25.558;2022-10-17T03:39:32;101111.78;;;6.34;66.42
7109;BME280;29079;41.930;25.558;2022-10-17T03:42:02;101116.94;;;6.37;66.51
7109;BME280;29079;41.930;25.558;2022-10-17T03:44:32;101119.50;;;6.39;66.09
7109;BME280;29079;41.930;25.558;2022-10-17T03:47:01;101114.22;;;6.39;66.17
7109;BME280;29079;41.930;25.558;2022-10-17T03:49:31;101120.94;;;6.27;67.12
7109;BME280;29079;41.930;25.558;2022-10-17T03:52:01;101135.00;;;6.29;67.37
7109;BME280;29079;41.930;25.558;2022-10-17T03:54:32;101129.06;;;6.43;66.28
7109;BME280;29079;41.930;25.558;2022-10-17T03:57:01;101133.22;;;6.49;66.66
7109;BME280;29079;41.930;25.558;2022-10-17T03:59:31;101138.59;;;6.47;66.47
7109;BME280;29079;41.930;25.558;2022-10-17T04:02:01;101142.44;;;6.21;67.21
7109;BME280;29079;41.930;25.558;2022-10-17T04:04:31;101141.13;;;6.10;67.67
7109;BME280;29079;41.930;25.558;2022-10-17T04:07:04;101138.63;;;6.07;67.91
7109;BME280;29079;41.930;25.558;2022-10-17T04:09:36;101140.31;;;6.29;67.22
7109;BME280;29079;41.930;25.558;2022-10-17T04:12:06;101145.88;;;6.23;66.83
7109;BME280;29079;41.930;25.558;2022-10-17T04:14:36;101141.69;;;6.38;66.76
7109;BME280;29079;41.930;25.558;2022-10-17T04:17:06;101137.22;;;6.38;66.83
7109;BME280;29079;41.930;25.558;2022-10-17T04:19:36;101135.25;;;6.23;67.28
7109;BME280;29079;41.930;25.558;2022-10-17T04:22:06;101138.69;;;6.06;67.95
7109;BME280;29079;41.930;25.558;2022-10-17T04:24:38;101145.53;;;5.89;68.74
7109;BME280;29079;41.930;25.558;2022-10-17T04:27:07;101145.47;;;5.91;68.85
7109;BME280;29079;41.930;25.558;2022-10-17T04:29:37;101150.66;;;5.94;68.04
7109;BME280;29079;41.930;25.558;2022-10-17T04:32:07;101157.09;;;5.88;68.90
7109;BME280;29079;41.930;25.558;2022-10-17T04:34:36;101161.56;;;5.66;69.17
7109;BME280;29079;41.930;25.558;2022-10-17T04:37:06;101163.66;;;5.80;69.04
7109;BME280;29079;41.930;25.558;2022-10-17T04:39:38;101161.91;;;5.79;69.05
7109;BME280;29079;41.930;25.558;2022-10-17T04:42:07;101160.94;;;6.02;68.66
7109;BME280;29079;41.930;25.558;2022-10-17T04:44:37;101166.19;;;6.03;68.07
7109;BME280;29079;41.930;25.558;2022-10-17T04:47:06;101165.50;;;5.98;67.83
7109;BME280;29079;41.930;25.558;2022-10-17T04:49:36;101164.28;;;5.85;68.46
7109;BME280;29079;41.930;25.558;2022-10-17T04:52:05;101174.94;;;5.83;68.65
7109;BME280;29079;41.930;25.558;2022-10-17T04:54:35;101171.41;;;6.05;67.92
7109;BME280;29079;41.930;25.558;2022-10-17T04:57:06;101174.84;;;6.07;67.93
7109;BME280;29079;41.930;25.558;2022-10-17T04:59:36;101179.97;;;6.12;67.92
7109;BME280;29079;41.930;25.558;2022-10-17T05:02:05;101179.94;;;6.32;67.87
7109;BME280;29079;41.930;25.558;2022-10-17T05:04:35;101179.13;;;6.51;66.69
7109;BME280;29079;41.930;25.558;2022-10-17T05:07:05;101177.84;;;6.59;67.07
7109;BME280;29079;41.930;25.558;2022-10-17T05:09:35;101182.06;;;6.24;68.08
7109;BME280;29079;41.930;25.558;2022-10-17T05:12:06;101183.25;;;6.17;68.09
7109;BME280;29079;41.930;25.558;2022-10-17T05:14:38;101186.56;;;6.42;67.90
7109;BME280;29079;41.930;25.558;2022-10-17T05:17:08;101191.34;;;6.53;67.41
7109;BME280;29079;41.930;25.558;2022-10-17T05:19:38;101193.97;;;6.34;68.03
7109;BME280;29079;41.930;25.558;2022-10-17T05:22:07;101115.53;;;5.89;67.49
7109;BME280;29079;41.930;25.558;2022-10-17T05:24:37;101202.47;;;6.42;67.24
7109;BME280;29079;41.930;25.558;2022-10-17T05:27:08;101200.66;;;6.43;67.34
7109;BME280;29079;41.930;25.558;2022-10-17T05:29:38;101200.81;;;6.40;67.01
7109;BME280;29079;41.930;25.558;2022-10-17T05:32:08;101199.38;;;6.52;66.97
7109;BME280;29079;41.930;25.558;2022-10-17T05:34:37;101195.81;;;6.53;67.00
7109;BME280;29079;41.930;25.558;2022-10-17T05:37:07;101202.19;;;6.68;66.83
7109;BME280;29079;41.930;25.558;2022-10-17T05:39:37;101203.31;;;6.83;66.17
7109;BME280;29079;41.930;25.558;2022-10-17T05:42:08;101201.28;;;6.88;66.12
7109;BME280;29079;41.930;25.558;2022-10-17T05:44:38;101205.88;;;6.84;66.52
7109;BME280;29079;41.930;25.558;2022-10-17T05:47:08;101211.19;;;6.84;66.21
7109;BME280;29079;41.930;25.558;2022-10-17T05:49:38;101229.13;;;6.98;65.73
7109;BME280;29079;41.930;25.558;2022-10-17T05:52:17;101231.47;;;7.04;65.43
7109;BME280;29079;41.930;25.558;2022-10-17T05:54:46;101235.22;;;7.00;66.24
7109;BME280;29079;41.930;25.558;2022-10-17T05:57:18;101233.50;;;6.99;66.18
7109;BME280;29079;41.930;25.558;2022-10-17T05:59:47;101232.97;;;7.10;66.12
7109;BME280;29079;41.930;25.558;2022-10-17T06:02:17;101241.09;;;7.07;66.30
7109;BME280;29079;41.930;25.558;2022-10-17T06:04:47;101246.31;;;7.27;65.96
7109;BME280;29079;41.930;25.558;2022-10-17T06:07:17;101248.34;;;7.41;66.01
7109;BME280;29079;41.930;25.558;2022-10-17T06:09:47;101241.44;;;7.37;66.45
7109;BME280;29079;41.930;25.558;2022-10-17T06:12:18;101244.72;;;7.61;66.61
7109;BME280;29079;41.930;25.558;2022-10-17T06:14:48;101246.59;;;7.77;65.78
7109;BME280;29079;41.930;25.558;2022-10-17T06:17:18;101239.09;;;7.85;65.62
7109;BME280;29079;41.930;25.558;2022-10-17T06:19:48;101240.34;;;7.95;66.05
7109;BME280;29079;41.930;25.558;2022-10-17T06:22:17;101238.88;;;8.07;65.83
7109;BME280;29079;41.930;25.558;2022-10-17T06:24:47;101238.34;;;8.18;66.04
7109;BME280;29079;41.930;25.558;2022-10-17T06:27:17;101243.88;;;8.31;65.13
7109;BME280;29079;41.930;25.558;2022-10-17T06:29:47;101240.09;;;8.35;66.17
7109;BME280;29079;41.930;25.558;2022-10-17T06:32:18;101242.34;;;8.44;65.57
7109;BME280;29079;41.930;25.558;2022-10-17T06:34:48;101241.06;;;8.51;65.94
7109;BME280;29079;41.930;25.558;2022-10-17T06:37:17;101240.22;;;8.67;65.09
7109;BME280;29079;41.930;25.558;2022-10-17T06:39:47;101244.81;;;8.81;65.67
7109;BME280;29079;41.930;25.558;2022-10-17T06:42:16;101251.03;;;8.97;64.73
7109;BME280;29079;41.930;25.558;2022-10-17T06:44:48;101250.28;;;9.11;65.00
7109;BME280;29079;41.930;25.558;2022-10-17T06:47:17;101252.09;;;9.27;64.72
7109;BME280;29079;41.930;25.558;2022-10-17T06:49:47;101250.38;;;9.41;63.83
7109;BME280;29079;41.930;25.558;2022-10-17T06:52:17;101249.94;;;9.49;63.75
7109;BME280;29079;41.930;25.558;2022-10-17T06:54:46;101253.97;;;9.56;63.80
7109;BME280;29079;41.930;25.558;2022-10-17T06:57:17;101256.13;;;9.66;64.58
7109;BME280;29079;41.930;25.558;2022-10-17T06:59:48;101259.00;;;9.77;63.66
7109;BME280;29079;41.930;25.558;2022-10-17T07:02:17;101260.78;;;9.92;63.52
7109;BME280;29079;41.930;25.558;2022-10-17T07:04:47;101260.84;;;10.07;63.71
7109;BME280;29079;41.930;25.558;2022-10-17T07:07:17;101262.66;;;10.21;62.55
7109;BME280;29079;41.930;25.558;2022-10-17T07:09:46;101267.28;;;10.33;62.70
7109;BME280;29079;41.930;25.558;2022-10-17T07:12:16;101269.16;;;10.47;62.68
7109;BME280;29079;41.930;25.558;2022-10-17T07:14:47;101265.63;;;10.61;61.79
7109;BME280;29079;41.930;25.558;2022-10-17T07:17:17;101270.59;;;10.67;61.84
7109;BME280;29079;41.930;25.558;2022-10-17T07:19:47;101270.50;;;10.69;61.99
7109;BME280;29079;41.930;25.558;2022-10-17T07:22:17;101266.41;;;10.77;61.82
7109;BME280;29079;41.930;25.558;2022-10-17T07:24:47;101267.56;;;10.88;61.31
7109;BME280;29079;41.930;25.558;2022-10-17T07:27:22;101268.59;;;11.00;61.21
7109;BME280;29079;41.930;25.558;2022-10-17T07:29:53;101265.34;;;11.09;60.62
7109;BME280;29079;41.930;25.558;2022-10-17T07:32:23;101273.75;;;11.17;60.89
7109;BME280;29079;41.930;25.558;2022-10-17T07:34:52;101274.09;;;11.25;60.11
7109;BME280;29079;41.930;25.558;2022-10-17T07:37:22;101273.41;;;11.36;59.38
7109;BME280;29079;41.930;25.558;2022-10-17T07:39:51;101268.50;;;11.43;58.87
7109;BME280;29079;41.930;25.558;2022-10-17T07:42:21;101273.50;;;11.49;58.86
7109;BME280;29079;41.930;25.558;2022-10-17T07:44:53;101275.00;;;11.53;58.51
7109;BME280;29079;41.930;25.558;2022-10-17T07:47:22;101279.00;;;11.60;58.58
7109;BME280;29079;41.930;25.558;2022-10-17T07:49:52;101275.72;;;11.70;57.99
7109;BME280;29079;41.930;25.558;2022-10-17T07:52:22;101278.75;;;11.78;57.68
7109;BME280;29079;41.930;25.558;2022-10-17T07:54:52;101278.22;;;11.85;57.21
7109;BME280;29079;41.930;25.558;2022-10-17T07:57:21;101277.19;;;11.88;56.73
7109;BME280;29079;41.930;25.558;2022-10-17T07:59:52;101267.81;;;11.95;56.53
7109;BME280;29079;41.930;25.558;2022-10-17T08:02:23;101267.28;;;12.03;56.18
7109;BME280;29079;41.930;25.558;2022-10-17T08:04:53;101268.47;;;12.12;55.61
7109;BME280;29079;41.930;25.558;2022-10-17T08:07:22;101276.97;;;12.18;55.95
7109;BME280;29079;41.930;25.558;2022-10-17T08:09:57;101281.78;;;12.26;55.83
7109;BME280;29079;41.930;25.558;2022-10-17T08:12:28;101275.28;;;12.30;55.46
7109;BME280;29079;41.930;25.558;2022-10-17T08:15:02;101265.84;;;12.38;55.23
7109;BME280;29079;41.930;25.558;2022-10-17T08:17:32;101268.94;;;12.44;55.12
7109;BME280;29079;41.930;25.558;2022-10-17T08:20:02;101270.56;;;12.47;54.70
7109;BME280;29079;41.930;25.558;2022-10-17T08:22:33;101266.28;;;12.57;54.59
7109;BME280;29079;41.930;25.558;2022-10-17T08:25:03;101262.00;;;12.67;54.28
7109;BME280;29079;41.930;25.558;2022-10-17T08:27:33;101257.28;;;12.71;54.31
7109;BME280;29079;41.930;25.558;2022-10-17T08:30:05;101256.84;;;12.77;54.34
7109;BME280;29079;41.930;25.558;2022-10-17T08:32:35;101263.72;;;12.81;54.69
7109;BME280;29079;41.930;25.558;2022-10-17T08:35:04;101258.13;;;12.84;54.69
7109;BME280;29079;41.930;25.558;2022-10-17T08:37:34;101251.59;;;12.88;54.87
7109;BME280;29079;41.930;25.558;2022-10-17T08:40:05;101254.66;;;13.08;54.71
7109;BME280;29079;41.930;25.558;2022-10-17T08:42:41;101249.06;;;13.11;54.90
7109;BME280;29079;41.930;25.558;2022-10-17T08:45:17;101254.44;;;13.11;54.65
7109;BME280;29079;41.930;25.558;2022-10-17T08:47:50;101254.28;;;13.26;54.17
7109;BME280;29079;41.930;25.558;2022-10-17T08:50:23;101257.63;;;13.29;54.32
7109;BME280;29079;41.930;25.558;2022-10-17T08:52:55;101245.91;;;13.43;54.38
7109;BME280;29079;41.930;25.558;2022-10-17T08:55:28;101247.41;;;13.47;54.19
7109;BME280;29079;41.930;25.558;2022-10-17T08:58:00;101247.41;;;13.47;54.37
7109;BME280;29079;41.930;25.558;2022-10-17T09:00:44;101248.16;;;13.49;54.28
7109;BME280;29079;41.930;25.558;2022-10-17T09:03:19;101249.72;;;13.52;54.97
7109;BME280;29079;41.930;25.558;2022-10-17T09:05:52;101251.34;;;13.54;54.90
7109;BME280;29079;41.930;25.558;2022-10-17T09:08:28;101254.53;;;13.60;55.02
7109;BME280;29079;41.930;25.558;2022-10-17T09:11:03;101247.41;;;13.71;54.71
7109;BME280;29079;41.930;25.558;2022-10-17T09:13:41;101246.94;;;13.78;54.63
7109;BME280;29079;41.930;25.558;2022-10-17T09:16:26;101254.88;;;13.79;55.00
7109;BME280;29079;41.930;25.558;2022-10-17T09:19:02;101250.47;;;13.78;55.08
7109;BME280;29079;41.930;25.558;2022-10-17T09:21:35;101251.13;;;13.82;55.23
7109;BME280;29079;41.930;25.558;2022-10-17T09:24:09;101243.66;;;13.85;55.43
7109;BME280;29079;41.930;25.558;2022-10-17T09:26:43;101253.63;;;13.96;55.63
7109;BME280;29079;41.930;25.558;2022-10-17T09:29:14;101245.56;;;13.96;56.08
7109;BME280;29079;41.930;25.558;2022-10-17T09:31:48;101244.59;;;13.97;55.88
7109;BME280;29079;41.930;25.558;2022-10-17T09:34:20;101233.63;;;14.00;55.56
7109;BME280;29079;41.930;25.558;2022-10-17T09:36:54;101235.81;;;14.06;55.30
7109;BME280;29079;41.930;25.558;2022-10-17T09:39:26;101223.78;;;14.12;55.54
7109;BME280;29079;41.930;25.558;2022-10-17T09:41:59;101228.19;;;14.24;54.88
7109;BME280;29079;41.930;25.558;2022-10-17T09:44:29;101216.88;;;14.32;54.65
7109;BME280;29079;41.930;25.558;2022-10-17T09:47:11;101213.63;;;14.62;54.15
7109;BME280;29079;41.930;25.558;2022-10-17T09:49:44;101214.94;;;14.79;53.46
7109;BME280;29079;41.930;25.558;2022-10-17T09:52:15;101220.59;;;14.88;52.96
7109;BME280;29079;41.930;25.558;2022-10-17T09:54:46;101210.47;;;14.80;53.24
7109;BME280;29079;41.930;25.558;2022-10-17T09:57:17;101213.72;;;14.72;53.70
7109;BME280;29079;41.930;25.558;2022-10-17T09:59:47;101205.91;;;14.69;54.15
7109;BME280;29079;41.930;25.558;2022-10-17T10:02:25;101206.66;;;14.71;53.91
7109;BME280;29079;41.930;25.558;2022-10-17T10:04:57;101206.91;;;14.68;53.53
7109;BME280;29079;41.930;25.558;2022-10-17T10:07:33;101202.63;;;14.66;53.82
7109;BME280;29079;41.930;25.558;2022-10-17T10:10:04;101201.41;;;14.70;53.59
7109;BME280;29079;41.930;25.558;2022-10-17T10:12:36;101203.84;;;14.61;54.33
7109;BME280;29079;41.930;25.558;2022-10-17T10:17:52;101205.38;;;14.41;54.96
7109;BME280;29079;41.930;25.558;2022-10-17T10:20:27;101198.91;;;14.33;55.42
7109;BME280;29079;41.930;25.558;2022-10-17T10:23:11;101198.53;;;14.26;56.03
7109;BME280;29079;41.930;25.558;2022-10-17T10:25:55;101200.00;;;14.30;56.05
7109;BME280;29079;41.930;25.558;2022-10-17T10:28:26;101199.78;;;14.44;55.57
7109;BME280;29079;41.930;25.558;2022-10-17T10:30:57;101185.06;;;14.73;54.94
7109;BME280;29079;41.930;25.558;2022-10-17T10:33:30;101186.22;;;14.91;54.14
7109;BME280;29079;41.930;25.558;2022-10-17T10:36:00;101178.28;;;15.01;53.54
7109;BME280;29079;41.930;25.558;2022-10-17T10:38:31;101185.13;;;15.05;53.55
7109;BME280;29079;41.930;25.558;2022-10-17T10:41:02;101176.94;;;15.07;53.22
7109;BME280;29079;41.930;25.558;2022-10-17T10:43:34;101176.41;;;15.24;52.49
7109;BME280;29079;41.930;25.558;2022-10-17T10:46:06;101178.81;;;15.39;51.95
7109;BME280;29079;41.930;25.558;2022-10-17T10:48:53;101168.28;;;15.47;52.19
7109;BME280;29079;41.930;25.558;2022-10-17T10:51:25;101163.69;;;15.59;52.00
7109;BME280;29079;41.930;25.558;2022-10-17T10:53:58;101158.97;;;15.72;51.54
7109;BME280;29079;41.930;25.558;2022-10-17T10:56:32;101149.94;;;15.94;50.99
7109;BME280;29079;41.930;25.558;2022-10-17T10:59:03;101154.97;;;15.99;50.70
7109;BME280;29079;41.930;25.558;2022-10-17T11:01:37;101149.63;;;16.09;50.58
7109;BME280;29079;41.930;25.558;2022-10-17T11:04:20;101152.84;;;16.02;50.93
7109;BME280;29079;41.930;25.558;2022-10-17T11:06:54;101141.53;;;16.09;50.28
7109;BME280;29079;41.930;25.558;2022-10-17T11:09:29;101149.75;;;16.07;50.86
7109;BME280;29079;41.930;25.558;2022-10-17T11:12:03;101150.47;;;16.09;50.25
7109;BME280;29079;41.930;25.558;2022-10-17T11:14:37;101135.38;;;15.97;50.65
7109;BME280;29079;41.930;25.558;2022-10-17T11:17:14;101138.91;;;15.97;50.66
7109;BME280;29079;41.930;25.558;2022-10-17T11:19:49;101134.97;;;16.01;50.64
7109;BME280;29079;41.930;25.558;2022-10-17T11:22:22;101142.75;;;16.26;49.88
7109;BME280;29079;41.930;25.558;2022-10-17T11:24:57;101138.06;;;16.18;49.86
7109;BME280;29079;41.930;25.558;2022-10-17T11:27:28;101127.56;;;16.15;50.95
7109;BME280;29079;41.930;25.558;2022-10-17T11:29:59;101136.22;;;16.18;50.25
7109;BME280;29079;41.930;25.558;2022-10-17T11:32:30;101126.03;;;16.22;50.15
7109;BME280;29079;41.930;25.558;2022-10-17T11:35:04;101129.16;;;16.27;50.24
7109;BME280;29079;41.930;25.558;2022-10-17T11:37:36;101122.78;;;16.28;50.08
7109;BME280;29079;41.930;25.558;2022-10-17T11:40:13;101121.69;;;16.41;49.70
7109;BME280;29079;41.930;25.558;2022-10-17T11:42:50;101124.25;;;16.32;50.00
7109;BME280;29079;41.930;25.558;2022-10-17T11:45:21;101121.91;;;16.28;49.34
7109;BME280;29079;41.930;25.558;2022-10-17T11:47:54;101116.94;;;16.23;49.85
7109;BME280;29079;41.930;25.558;2022-10-17T11:50:30;101114.34;;;16.12;50.06
7109;BME280;29079;41.930;25.558;2022-10-17T11:53:23;101105.53;;;16.10;50.57
7109;BME280;29079;41.930;25.558;2022-10-17T11:55:54;101111.47;;;16.04;50.71
7109;BME280;29079;41.930;25.558;2022-10-17T11:58:27;101108.91;;;16.02;51.02
7109;BME280;29079;41.930;25.558;2022-10-17T12:01:11;101095.34;;;16.13;50.76
7109;BME280;29079;41.930;25.558;2022-10-17T12:03:49;101101.09;;;15.99;51.10
7109;BME280;29079;41.930;25.558;2022-10-17T12:06:26;101103.75;;;15.89;50.92
7109;BME280;29079;41.930;25.558;2022-10-17T12:09:00;101097.25;;;15.92;50.75
7109;BME280;29079;41.930;25.558;2022-10-17T12:11:35;101102.09;;;15.98;50.61
7109;BME280;29079;41.930;25.558;2022-10-17T12:16:53;101094.56;;;15.92;50.29
7109;BME280;29079;41.930;25.558;2022-10-17T12:22:16;101093.25;;;15.86;50.31
7109;BME280;29079;41.930;25.558;2022-10-17T12:24:59;101084.81;;;16.00;50.09
7109;BME280;29079;41.930;25.558;2022-10-17T12:27:39;101077.13;;;15.96;50.31
7109;BME280;29079;41.930;25.558;2022-10-17T12:30:15;101086.56;;;16.11;49.94
7109;BME280;29079;41.930;25.558;2022-10-17T12:32:56;101087.16;;;16.15;49.54
7109;BME280;29079;41.930;25.558;2022-10-17T12:35:35;101092.94;;;16.10;49.93
7109;BME280;29079;41.930;25.558;2022-10-17T12:38:17;101092.22;;;16.08;49.97
7109;BME280;29079;41.930;25.558;2022-10-17T12:40:51;101090.63;;;16.06;50.10
7109;BME280;29079;41.930;25.558;2022-10-17T12:54:56;101086.19;;;16.26;49.65
7109;BME280;29079;41.930;25.558;2022-10-17T12:57:41;101089.72;;;16.26;49.65
7109;BME280;29079;41.930;25.558;2022-10-17T13:00:17;101077.94;;;16.17;50.29
7109;BME280;29079;41.930;25.558;2022-10-17T13:02:47;101081.78;;;16.25;49.76
7109;BME280;29079;41.930;25.558;2022-10-17T13:05:20;101086.78;;;16.29;49.82
7109;BME280;29079;41.930;25.558;2022-10-17T13:07:53;101073.28;;;16.19;49.90
7109;BME280;29079;41.930;25.558;2022-10-17T13:10:25;101080.63;;;16.17;50.58
7109;BME280;29079;41.930;25.558;2022-10-17T13:13:02;101073.28;;;16.19;50.30
7109;BME280;29079;41.930;25.558;2022-10-17T13:15:35;101083.97;;;16.31;50.60
7109;BME280;29079;41.930;25.558;2022-10-17T13:18:05;101080.13;;;16.33;50.76
7109;BME280;29079;41.930;25.558;2022-10-17T13:20:37;101084.06;;;16.29;49.91
7109;BME280;29079;41.930;25.558;2022-10-17T13:23:19;101082.75;;;16.14;50.44
7109;BME280;29079;41.930;25.558;2022-10-17T13:26:02;101085.44;;;16.14;50.28
7109;BME280;29079;41.930;25.558;2022-10-17T13:28:32;101086.41;;;16.13;50.39
7109;BME280;29079;41.930;25.558;2022-10-17T13:31:12;101075.44;;;16.26;50.50
7109;BME280;29079;41.930;25.558;2022-10-17T13:33:55;101083.31;;;16.17;50.74
7109;BME280;29079;41.930;25.558;2022-10-17T13:36:25;101079.09;;;16.25;50.88
7109;BME280;29079;41.930;25.558;2022-10-17T13:38:56;101078.81;;;16.28;50.64
7109;BME280;29079;41.930;25.558;2022-10-17T13:41:28;101079.09;;;16.25;50.84
7109;BME280;29079;41.930;25.558;2022-10-17T13:44:06;101073.28;;;16.19;50.95
7109;BME280;29079;41.930;25.558;2022-10-17T13:46:39;101086.41;;;16.13;51.36